Time;durP1;ratioP1;P1;durP2;ratioP2;P2;SDS_P1;SDS_P2;PMS_P1;PMS_P2;Temp;Humidity;BMP_temperature;BMP_pressure;BME280_temperature;BME280_humidity;BME280_pressure;Samples;Min_cycle;Max_cycle;Signal;HPM_P1;HPM_P2
2023/03/29 00:00:05;;;;;;;5.47;3.87;;;4.70;52.20;;;4.45;52.47;98422.25;5038348;28;20465;-76
2023/03/29 00:02:33;;;;;;;3.80;3.10;;;4.70;52.00;;;4.60;52.11;98425.94;5042097;28;21044;-77
2023/03/29 00:05:03;;;;;;;4.60;3.17;;;4.70;52.10;;;4.36;52.15;98402.69;5063512;28;20457;-75
2023/03/29 00:07:35;;;;;;;3.93;3.20;;;4.70;51.90;;;4.58;51.62;98421.75;5062108;28;20460;-77
2023/03/29 00:10:04;;;;;;;6.43;3.40;;;4.80;52.00;;;4.05;51.36;98337.28;5068670;28;20544;-76
2023/03/29 00:12:32;;;;;;;4.27;3.23;;;4.80;51.90;;;4.72;51.35;98439.81;5034768;28;20524;-76
2023/03/29 00:15:00;;;;;;;4.73;3.07;;;4.90;51.90;;;4.67;51.48;98426.13;5060897;28;20461;-76
2023/03/29 00:17:29;;;;;;;4.00;3.30;;;4.90;51.90;;;4.74;52.07;98432.47;5044196;28;20475;-79
2023/03/29 00:19:57;;;;;;;4.90;2.90;;;4.90;52.00;;;4.76;51.70;98414.38;5047533;28;20511;-78
2023/03/29 00:22:26;;;;;;;4.57;2.93;;;4.90;51.90;;;4.88;51.06;98422.09;5055834;28;20977;-76
2023/03/29 00:24:54;;;;;;;7.03;3.90;;;5.00;51.90;;;4.39;51.74;98338.13;5046422;28;20456;-78
2023/03/29 00:27:21;;;;;;;3.30;3.00;;;5.10;52.00;;;5.00;51.26;98434.13;5049518;28;20465;-77
2023/03/29 00:29:48;;;;;;;4.63;3.10;;;5.10;51.90;;;5.16;51.28;98427.06;5047775;28;20536;-77
2023/03/29 00:32:16;;;;;;;5.00;3.30;;;5.10;52.00;;;4.53;51.35;98350.84;5051197;28;20828;-77
2023/03/29 00:34:44;;;;;;;4.20;3.57;;;5.10;52.20;;;4.94;52.26;98421.44;5067281;28;20466;-76
2023/03/29 00:37:13;;;;;;;4.60;4.00;;;5.00;52.90;;;4.88;53.61;98406.03;5046408;28;20468;-79
2023/03/29 00:39:43;;;;;;;4.90;3.80;;;5.00;53.80;;;5.08;53.69;98399.31;5047223;28;20465;-77
2023/03/29 00:42:13;;;;;;;3.83;3.43;;;5.10;54.20;;;5.04;53.88;98379.22;5048158;28;20965;-79
2023/03/29 00:45:01;;;;;;;5.60;3.47;;;5.10;54.30;;;4.70;53.61;98385.63;5060524;28;20524;-78
2023/03/29 00:47:33;;;;;;;5.80;3.70;;;5.00;54.20;;;4.85;53.65;98384.94;5042106;28;21509;-78
2023/03/29 00:50:06;;;;;;;4.77;3.33;;;4.90;54.40;;;4.68;54.19;98352.84;5049332;28;20953;-78
2023/03/29 00:52:36;;;;;;;5.30;3.30;;;4.90;54.60;;;4.74;54.72;98376.25;5041837;28;20453;-76
2023/03/29 00:55:10;;;;;;;4.00;3.40;;;4.90;54.60;;;4.81;54.15;98373.72;5053879;28;20563;-79
2023/03/29 00:57:42;;;;;;;5.30;3.57;;;4.90;54.70;;;4.52;54.58;98359.88;5050930;28;20465;-76
2023/03/29 01:00:13;;;;;;;4.23;3.00;;;4.90;54.90;;;4.40;55.04;98345.16;5058938;28;20477;-75
2023/03/29 01:02:44;;;;;;;8.00;3.23;;;4.80;54.80;;;4.50;55.71;98364.56;5052422;28;20551;-78
2023/03/29 01:05:16;;;;;;;7.40;3.60;;;4.70;55.10;;;4.37;54.66;98286.66;5049541;28;20450;-77
2023/03/29 01:07:49;;;;;;;7.30;4.20;;;4.80;55.40;;;4.72;55.04;98350.66;5047068;28;20450;-79
2023/03/29 01:10:26;;;;;;;5.27;3.37;;;4.80;55.60;;;4.69;55.17;98351.84;5043242;28;20453;-76
2023/03/29 01:13:02;;;;;;;6.57;3.07;;;4.80;55.80;;;4.74;55.60;98345.97;5048746;28;20453;-76
2023/03/29 01:15:32;;;;;;;4.57;3.37;;;4.80;56.00;;;4.43;55.23;98307.34;5042925;28;20453;-77
2023/03/29 01:18:00;;;;;;;8.97;3.70;;;4.80;55.90;;;4.75;55.76;98329.72;5047977;28;20452;-77
2023/03/29 01:20:45;;;;;;;6.00;3.70;;;4.80;56.10;;;4.71;55.42;98324.91;5034142;28;20468;-77
2023/03/29 01:23:42;;;;;;;4.83;3.43;;;4.80;56.30;;;4.61;55.86;98299.16;5043795;28;20528;-76
2023/03/29 01:26:21;;;;;;;5.20;4.70;;;4.80;56.20;;;4.77;56.08;98313.50;5059346;28;20458;-77
2023/03/29 01:28:55;;;;;;;4.30;3.57;;;4.90;56.20;;;4.73;55.41;98307.66;5047596;28;20453;-77
2023/03/29 01:31:27;;;;;;;5.93;3.87;;;4.80;56.20;;;4.79;55.02;98312.34;5037884;28;20463;-75
2023/03/29 01:34:02;;;;;;;5.63;3.40;;;4.90;56.20;;;4.74;55.17;98303.97;5043416;28;20942;-77
2023/03/29 01:36:36;;;;;;;3.60;3.27;;;4.90;56.00;;;4.82;55.11;98322.69;5043650;28;20456;-77
2023/03/29 01:39:06;;;;;;;5.70;3.70;;;4.90;56.00;;;4.73;55.12;98302.28;5056783;28;20477;-78
2023/03/29 01:41:44;;;;;;;4.90;3.50;;;5.00;56.10;;;4.72;55.95;98308.66;5050997;28;20517;-78
2023/03/29 01:44:18;;;;;;;4.40;3.10;;;4.90;56.10;;;4.73;56.28;98291.59;5041947;28;20545;-77
2023/03/29 01:46:48;;;;;;;4.20;3.43;;;5.00;57.00;;;4.84;56.20;98308.31;5042578;28;20595;-77
2023/03/29 01:49:23;;;;;;;5.47;4.07;;;4.90;57.00;;;4.68;56.84;98284.06;5049595;28;20457;-75
2023/03/29 01:51:58;;;;;;;5.30;3.10;;;4.90;57.70;;;4.72;57.12;98289.91;5040514;28;20491;-78
2023/03/29 01:54:31;;;;;;;4.07;3.40;;;4.90;58.40;;;4.80;58.82;98281.88;5054108;28;20461;-77
2023/03/29 01:56:59;;;;;;;3.80;3.50;;;4.90;59.80;;;4.40;58.64;98291.66;5050022;28;20478;-77
2023/03/29 01:59:34;;;;;;;4.43;3.80;;;4.80;59.30;;;4.62;58.83;98289.25;5047706;28;20451;-76
2023/03/29 02:02:04;;;;;;;4.70;3.30;;;4.80;59.80;;;4.59;58.83;98278.91;5049434;28;20468;-77
2023/03/29 02:04:35;;;;;;;6.13;3.60;;;4.80;60.50;;;4.61;59.95;98290.28;5058031;28;20488;-78
2023/03/29 02:07:06;;;;;;;3.73;3.40;;;4.80;61.20;;;4.53;59.79;98283.94;5057811;28;20766;-75
2023/03/29 02:09:36;;;;;;;4.37;3.87;;;4.80;61.50;;;4.82;60.21;98287.03;5064907;28;20441;-75
2023/03/29 02:12:06;;;;;;;3.97;3.57;;;4.80;62.70;;;4.75;61.15;98288.75;5052498;28;20435;-78
2023/03/29 02:14:35;;;;;;;3.60;3.30;;;4.80;63.40;;;4.79;61.14;98277.53;5052392;28;20458;-76
2023/03/29 02:17:19;;;;;;;4.47;4.07;;;4.80;64.40;;;4.76;62.14;98277.84;5063029;28;20430;-76
2023/03/29 02:19:50;;;;;;;4.23;3.83;;;4.80;66.40;;;4.76;62.30;98280.53;5068329;28;20460;-76
2023/03/29 02:22:23;;;;;;;5.60;4.43;;;4.80;67.40;;;4.78;63.65;98275.88;5072369;28;20453;-74
2023/03/29 02:24:57;;;;;;;5.73;4.70;;;4.80;69.00;;;4.70;64.13;98275.03;5070411;28;20488;-75
2023/03/29 02:27:26;;;;;;;6.80;4.07;;;4.80;70.10;;;4.23;65.54;98213.25;5072595;28;20478;-76
2023/03/29 02:29:54;;;;;;;5.03;4.47;;;4.70;71.30;;;4.53;65.23;98259.84;5071034;28;20457;-77
2023/03/29 02:32:27;;;;;;;5.00;4.50;;;4.70;72.20;;;4.49;66.02;98231.78;5077360;28;20472;-73
2023/03/29 02:34:59;;;;;;;4.10;3.80;;;4.70;73.60;;;4.59;66.53;98258.34;5069792;28;20454;-76
2023/03/29 02:37:30;;;;;;;8.30;4.67;;;4.80;74.10;;;4.77;68.27;98276.03;5069665;28;20431;-76
2023/03/29 02:39:59;;;;;;;4.93;4.53;;;4.80;76.20;;;4.86;67.86;98274.16;5075084;28;20531;-76
2023/03/29 02:42:28;;;;;;;4.77;4.37;;;4.80;75.80;;;4.93;67.81;98267.13;5067150;28;20485;-77
2023/03/29 02:45:01;;;;;;;5.93;3.87;;;4.90;76.50;;;4.83;67.54;98269.97;5054855;28;20457;-78
2023/03/29 02:47:34;;;;;;;5.83;4.70;;;4.90;76.50;;;4.70;68.56;98259.81;5053061;28;20494;-76
2023/03/29 02:50:01;;;;;;;8.70;4.93;;;4.80;77.00;;;4.58;68.24;98255.81;5048306;28;20561;-76
2023/03/29 02:52:35;;;;;;;7.90;5.20;;;4.70;77.00;;;4.60;68.40;98265.38;5048537;28;20462;-79
2023/03/29 02:55:05;;;;;;;8.80;5.57;;;4.70;77.40;;;4.56;69.63;98256.03;5050673;28;20457;-76
2023/03/29 02:57:34;;;;;;;5.03;4.00;;;4.60;77.80;;;4.51;69.96;98240.47;5046772;28;20795;-76
2023/03/29 03:00:05;;;;;;;5.23;4.17;;;4.60;78.60;;;4.44;70.04;98252.84;5048135;28;20588;-76
2023/03/29 03:02:32;;;;;;;5.17;3.90;;;4.60;79.00;;;4.48;70.35;98246.16;5047798;28;20475;-74
2023/03/29 03:05:00;;;;;;;5.00;4.10;;;4.60;79.90;;;4.30;71.01;98238.34;5042666;28;20462;-75
2023/03/29 03:07:28;;;;;;;4.20;3.43;;;4.50;80.00;;;4.33;71.55;98237.16;5045242;28;20471;-76
2023/03/29 03:09:56;;;;;;;5.73;4.40;;;4.50;80.60;;;4.39;71.73;98231.94;5052217;28;20461;-76
2023/03/29 03:12:24;;;;;;;4.83;4.10;;;4.50;81.30;;;4.21;71.54;98185.84;5043516;28;20450;-75
2023/03/29 03:14:51;;;;;;;4.53;4.13;;;4.50;82.20;;;4.38;71.86;98224.09;5044752;28;20474;-77
2023/03/29 03:17:21;;;;;;;4.70;4.00;;;4.50;82.00;;;4.43;72.54;98232.44;5051915;28;20542;-77
2023/03/29 03:19:48;;;;;;;4.90;4.40;;;4.50;82.80;;;4.32;73.00;98225.63;5044462;28;20490;-77
2023/03/29 03:22:16;;;;;;;5.90;3.77;;;4.40;83.80;;;4.32;73.57;98230.13;5046917;28;20560;-75
2023/03/29 03:24:44;;;;;;;3.90;3.60;;;4.40;84.20;;;2.50;74.92;97966.56;5046924;28;20470;-76
2023/03/29 03:27:12;;;;;;;6.50;4.50;;;4.40;85.00;;;4.15;74.90;98235.50;5039507;28;20594;-76
2023/03/29 03:29:40;;;;;;;4.10;3.70;;;4.30;86.80;;;4.21;75.56;98233.97;5046665;28;20449;-78
2023/03/29 03:32:07;;;;;;;5.67;3.67;;;4.40;87.30;;;4.10;75.44;98224.47;5056333;28;20452;-79
2023/03/29 03:34:37;;;;;;;4.77;4.37;;;4.40;87.00;;;4.29;74.39;98225.97;5059754;28;20462;-77
2023/03/29 03:37:04;;;;;;;4.97;3.93;;;4.40;86.60;;;4.01;74.96;98180.03;5068514;28;20455;-78
2023/03/29 03:39:32;;;;;;;4.30;3.80;;;4.40;86.60;;;4.30;74.70;98218.75;5045937;28;20481;-77
2023/03/29 03:41:59;;;;;;;5.60;4.30;;;4.40;86.90;;;4.25;75.59;98206.72;5050753;28;20482;-77
2023/03/29 03:44:27;;;;;;;4.23;3.40;;;4.40;87.30;;;4.37;75.53;98220.59;5046132;28;20525;-77
2023/03/29 03:46:54;;;;;;;5.30;4.80;;;4.40;88.20;;;4.61;74.32;98223.38;5052501;28;20471;-78
2023/03/29 03:49:21;;;;;;;4.67;4.17;;;4.50;87.90;;;4.42;74.71;98214.72;5047808;28;20465;-76
2023/03/29 03:51:51;;;;;;;3.83;3.53;;;4.50;88.00;;;4.21;75.40;98196.53;5045895;28;20461;-76
2023/03/29 03:54:21;;;;;;;5.60;4.17;;;4.50;88.20;;;4.41;75.71;98207.69;5057580;28;20484;-77
2023/03/29 03:56:49;;;;;;;4.07;3.67;;;4.50;88.30;;;4.53;75.28;98205.50;5053976;28;20915;-76
2023/03/29 03:59:16;;;;;;;7.43;4.13;;;4.50;88.40;;;3.75;76.13;98100.88;5052428;28;20439;-77
2023/03/29 04:01:44;;;;;;;4.10;3.70;;;4.50;88.60;;;4.21;76.63;98186.69;5046257;28;21248;-76
2023/03/29 04:04:12;;;;;;;4.07;3.67;;;4.40;89.70;;;4.32;76.66;98190.84;5068604;28;20464;-75
2023/03/29 04:06:39;;;;;;;6.27;3.50;;;4.40;89.90;;;4.35;76.74;98181.66;5041767;28;20554;-75
2023/03/29 04:09:09;;;;;;;5.37;4.03;;;4.40;90.40;;;4.14;77.66;98180.34;5045743;28;21259;-75
2023/03/29 04:11:36;;;;;;;5.10;3.90;;;4.30;90.50;;;4.15;77.79;98178.50;5046572;28;20548;-74
2023/03/29 04:14:04;;;;;;;6.17;4.33;;;4.30;91.00;;;4.23;78.35;98176.66;5047443;28;20453;-76
2023/03/29 04:16:32;;;;;;;5.07;4.00;;;4.40;91.10;;;4.05;78.26;98184.06;5053336;28;20454;-76
2023/03/29 04:19:00;;;;;;;4.53;3.87;;;4.30;91.00;;;4.18;77.70;98176.34;5048762;28;20485;-75
2023/03/29 04:21:27;;;;;;;6.20;3.80;;;4.30;91.30;;;4.11;79.05;98178.84;5048717;28;20888;-75
2023/03/29 04:23:54;;;;;;;5.27;3.83;;;4.30;91.40;;;4.24;77.77;98180.16;5047241;28;20458;-77
2023/03/29 04:26:23;;;;;;;5.17;3.67;;;4.30;91.60;;;3.97;78.34;98185.72;5055437;28;20449;-78
2023/03/29 04:28:50;;;;;;;6.03;3.97;;;4.30;91.20;;;3.85;80.02;98181.72;5051878;28;20515;-77
2023/03/29 04:31:17;;;;;;;7.17;5.10;;;4.20;91.80;;;3.94;80.23;98171.84;5046607;28;20445;-77
2023/03/29 04:33:45;;;;;;;4.97;4.47;;;4.10;92.40;;;4.12;78.89;98174.31;5045933;28;20538;-78
2023/03/29 04:36:14;;;;;;;4.93;3.97;;;4.10;92.80;;;3.97;79.90;98169.66;5040814;28;20823;-76
2023/03/29 04:38:41;;;;;;;4.97;4.47;;;4.20;92.50;;;3.94;79.46;98171.84;5043808;28;20450;-70
2023/03/29 04:41:09;;;;;;;4.93;4.20;;;4.20;92.40;;;4.06;79.48;98172.34;5042254;28;20477;-70
2023/03/29 04:43:38;;;;;;;4.53;4.13;;;4.20;92.30;;;4.03;80.03;98172.69;5055868;28;20457;-70
2023/03/29 04:46:06;;;;;;;6.13;4.63;;;4.20;92.40;;;4.21;78.46;98162.63;5037614;28;20458;-70
2023/03/29 04:48:36;;;;;;;5.37;4.50;;;4.30;92.20;;;4.13;78.63;98161.81;5042961;28;20451;-70
2023/03/29 04:51:03;;;;;;;6.47;4.60;;;4.30;91.60;;;4.14;78.41;98148.25;5042504;28;20539;-69
2023/03/29 04:53:30;;;;;;;7.17;4.57;;;4.30;91.60;;;4.07;78.61;98148.09;5040007;28;20454;-70
2023/03/29 04:55:58;;;;;;;6.37;4.57;;;4.30;91.40;;;4.15;79.42;98149.91;5038210;28;20503;-70
2023/03/29 04:58:26;;;;;;;8.20;5.07;;;4.30;91.70;;;4.14;78.84;98153.59;5044631;28;20453;-70
2023/03/29 05:00:58;;;;;;;7.30;5.00;;;4.40;91.70;;;4.10;78.79;98152.28;5053806;28;20974;-71
2023/03/29 05:03:25;;;;;;;4.17;3.73;;;4.40;91.30;;;4.21;78.17;98159.94;5037141;28;20456;-71
2023/03/29 05:05:53;;;;;;;6.57;5.37;;;4.40;91.30;;;4.17;78.39;98147.94;5039671;28;20481;-71
2023/03/29 05:08:20;;;;;;;5.70;5.20;;;4.30;91.20;;;4.01;78.26;98137.25;5030915;28;20446;-71
2023/03/29 05:10:48;;;;;;;6.20;5.10;;;4.30;90.90;;;4.15;77.90;98139.22;5056213;28;20459;-71
2023/03/29 05:13:15;;;;;;;6.23;5.27;;;4.40;91.20;;;4.11;77.85;98153.94;5040903;28;20943;-71
2023/03/29 05:15:43;;;;;;;5.63;4.80;;;4.30;90.80;;;3.95;78.78;98149.47;5035109;28;20519;-70
2023/03/29 05:18:11;;;;;;;7.40;5.37;;;4.20;91.20;;;4.07;77.81;98141.94;5049826;28;20464;-70
2023/03/29 05:20:39;;;;;;;7.10;6.10;;;4.30;90.80;;;4.15;77.10;98149.91;5052907;28;20460;-69
2023/03/29 05:23:06;;;;;;;5.13;4.63;;;4.40;90.40;;;4.15;77.37;98136.53;5048486;28;20501;-71
2023/03/29 05:25:34;;;;;;;5.03;4.53;;;4.40;90.30;;;4.01;77.38;98147.94;5059109;28;20466;-71
2023/03/29 05:28:02;;;;;;;6.03;5.40;;;4.40;90.00;;;4.19;77.50;98150.41;5040466;28;20458;-72
2023/03/29 05:30:29;;;;;;;5.57;5.07;;;4.40;90.30;;;4.17;76.88;98144.41;5048332;28;20454;-71
2023/03/29 05:32:56;;;;;;;7.50;5.53;;;4.30;89.60;;;4.14;76.36;98142.91;5052465;28;20466;-71
2023/03/29 05:35:25;;;;;;;5.67;5.07;;;4.40;89.00;;;4.03;76.68;98141.44;5050310;28;20548;-70
2023/03/29 05:37:52;;;;;;;5.93;5.17;;;4.30;88.40;;;4.15;76.28;98136.53;5041822;28;20453;-70
2023/03/29 05:40:20;;;;;;;6.90;5.70;;;4.30;88.60;;;4.25;75.98;98129.16;5044935;28;20975;-69
2023/03/29 05:42:47;;;;;;;5.77;5.17;;;4.40;89.00;;;4.34;76.01;98126.47;5045884;28;21203;-71
2023/03/29 05:45:15;;;;;;;6.13;4.73;;;4.40;88.60;;;4.24;75.97;98129.31;5045819;28;20947;-70
2023/03/29 05:47:42;;;;;;;6.60;4.93;;;4.40;87.80;;;4.25;75.96;98117.66;5053625;28;20938;-69
2023/03/29 05:50:10;;;;;;;6.87;5.07;;;4.50;87.70;;;4.23;75.76;98128.50;5047147;28;20462;-71
2023/03/29 05:52:40;;;;;;;6.33;5.47;;;4.50;87.50;;;4.34;75.47;98131.81;5046562;28;20460;-70
2023/03/29 05:55:09;;;;;;;6.67;5.20;;;4.50;87.60;;;4.21;76.23;98130.53;5047603;28;21165;-70
2023/03/29 05:57:37;;;;;;;7.03;4.90;;;4.50;87.60;;;4.46;75.51;98125.06;5051794;28;20457;-70
2023/03/29 06:00:14;;;;;;;5.90;5.30;;;4.60;88.50;;;4.02;75.52;98050.69;5053207;28;20457;-69
2023/03/29 06:02:41;;;;;;;6.70;5.67;;;4.60;87.80;;;4.58;75.27;98125.53;5032126;28;21043;-69
2023/03/29 06:05:09;;;;;;;8.80;4.90;;;4.70;87.30;;;4.43;75.41;98130.78;5035788;28;20465;-68
2023/03/29 06:07:37;;;;;;;6.23;4.70;;;4.70;86.50;;;4.74;75.39;98129.97;5041262;28;20460;-70
2023/03/29 06:10:08;;;;;;;6.00;5.13;;;4.80;87.20;;;4.54;75.11;98130.41;5037967;28;21271;-70
2023/03/29 06:12:36;;;;;;;6.40;5.53;;;4.80;85.70;;;4.59;75.18;98129.03;5053114;28;20462;-68
2023/03/29 06:15:04;;;;;;;6.73;5.30;;;4.90;85.50;;;4.99;73.63;98129.84;5037948;28;20522;-69
2023/03/29 06:17:33;;;;;;;6.03;5.27;;;5.10;84.90;;;5.00;73.22;98134.19;5060239;28;20458;-69
2023/03/29 06:20:00;;;;;;;7.30;5.87;;;5.20;84.20;;;5.22;72.72;98129.84;5052049;28;20458;-69
2023/03/29 06:22:28;;;;;;;5.60;5.10;;;5.30;84.10;;;4.77;74.26;98126.94;5074961;28;20504;-69
2023/03/29 06:24:55;;;;;;;5.87;5.27;;;5.10;83.90;;;4.90;73.36;98138.91;5055939;28;20480;-68
2023/03/29 06:27:24;;;;;;;5.37;4.87;;;5.10;84.30;;;5.07;73.49;98128.94;5053417;28;20487;-70
2023/03/29 06:29:51;;;;;;;6.47;5.30;;;5.20;84.10;;;4.86;74.32;98133.09;5045002;28;20458;-70
2023/03/29 06:32:18;;;;;;;5.97;5.47;;;5.10;83.90;;;4.78;74.16;98139.34;5044202;28;20455;-70
2023/03/29 06:34:46;;;;;;;6.37;5.13;;;5.10;84.60;;;5.25;73.23;98136.72;5048993;28;20455;-70
2023/03/29 06:37:13;;;;;;;6.03;5.43;;;5.20;84.70;;;5.06;73.41;98130.78;5044104;28;20526;-70
2023/03/29 06:39:40;;;;;;;6.13;5.37;;;5.20;84.30;;;5.25;73.00;98137.53;5051352;28;20484;-69
2023/03/29 06:42:08;;;;;;;5.70;5.20;;;5.30;83.80;;;5.21;72.50;98130.03;5057631;28;20469;-68
2023/03/29 06:44:36;;;;;;;6.33;5.60;;;5.40;83.80;;;5.37;72.91;98142.47;5041948;28;20467;-76
2023/03/29 06:47:04;;;;;;;5.90;5.30;;;5.50;83.50;;;5.50;71.91;98139.19;5038718;28;20450;-68
2023/03/29 06:49:31;;;;;;;8.37;5.70;;;5.60;82.90;;;5.64;71.31;98143.75;5040757;28;20914;-69
2023/03/29 06:51:58;;;;;;;7.00;5.77;;;5.60;82.60;;;5.72;71.56;98139.38;5044759;28;20450;-69
2023/03/29 06:54:26;;;;;;;6.03;5.53;;;5.70;82.40;;;5.51;71.52;98136.34;5034639;28;20965;-68
2023/03/29 06:56:53;;;;;;;6.70;5.50;;;5.70;82.20;;;5.49;71.67;98135.69;5045308;28;20459;-68
2023/03/29 06:59:21;;;;;;;7.00;5.63;;;5.70;82.30;;;5.68;71.29;98139.69;5042092;28;20459;-68
2023/03/29 07:01:51;;;;;;;6.40;5.80;;;5.80;81.90;;;5.85;70.74;98144.09;5044966;28;20475;-69
2023/03/29 07:04:18;;;;;;;5.90;4.73;;;5.90;82.00;;;5.96;70.76;98147.16;5040865;28;20458;-68
2023/03/29 07:06:47;;;;;;;7.83;5.30;;;6.00;81.50;;;6.06;70.65;98140.75;5043622;28;20524;-69
2023/03/29 07:09:15;;;;;;;5.33;4.80;;;6.00;81.70;;;6.10;70.13;98147.41;5044123;28;20565;-67
2023/03/29 07:11:42;;;;;;;5.97;5.27;;;6.20;81.20;;;6.00;70.32;98146.81;5044301;28;20450;-68
2023/03/29 07:14:10;;;;;;;6.47;5.20;;;6.20;81.00;;;6.21;69.10;98160.38;5038626;28;20462;-67
2023/03/29 07:16:37;;;;;;;5.17;4.67;;;6.30;80.60;;;6.36;69.41;98141.56;5045878;28;20884;-68
2023/03/29 07:19:08;;;;;;;8.10;4.90;;;6.40;80.70;;;6.56;68.73;98156.28;5069035;28;20453;-68
2023/03/29 07:21:35;;;;;;;5.77;4.90;;;6.50;80.20;;;6.27;68.58;98141.84;5059146;28;20529;-68
2023/03/29 07:24:03;;;;;;;5.83;4.90;;;6.50;79.60;;;6.04;69.49;98153.50;5041774;28;20504;-68
2023/03/29 07:26:31;;;;;;;6.63;5.63;;;6.40;79.80;;;6.62;68.18;98152.88;5040975;28;20645;-68
2023/03/29 07:28:59;;;;;;;7.20;5.53;;;6.50;79.90;;;6.97;67.05;98157.63;5048072;28;20938;-68
2023/03/29 07:31:28;;;;;;;6.97;4.60;;;6.90;79.70;;;7.25;66.48;98159.59;5043555;28;20532;-69
2023/03/29 07:33:55;;;;;;;7.80;4.97;;;7.10;79.30;;;7.23;65.49;98154.41;5051660;28;20532;-67
2023/03/29 07:36:24;;;;;;;4.70;4.30;;;7.20;78.40;;;7.22;66.23;98155.44;5048188;28;20503;-68
2023/03/29 07:38:51;;;;;;;6.47;4.47;;;7.20;78.30;;;7.27;65.39;98136.88;5046448;28;20633;-69
2023/03/29 07:41:18;;;;;;;8.03;4.77;;;7.40;78.00;;;6.82;65.86;98096.72;5040598;28;20485;-69
2023/03/29 07:43:45;;;;;;;8.53;4.70;;;7.30;77.90;;;7.47;65.70;98153.22;5047582;28;20505;-69
2023/03/29 07:46:12;;;;;;;6.27;4.10;;;7.50;78.20;;;7.30;65.29;98141.88;5039120;28;20466;-69
2023/03/29 07:48:40;;;;;;;5.83;5.03;;;7.60;77.40;;;7.63;64.50;98152.09;5042828;28;20451;-68
2023/03/29 07:51:08;;;;;;;5.90;4.60;;;7.80;77.30;;;7.93;63.99;98149.25;5041853;28;20462;-67
2023/03/29 07:53:37;;;;;;;4.70;3.83;;;7.90;76.90;;;8.11;63.48;98153.31;5055619;28;20453;-69
2023/03/29 07:56:05;;;;;;;5.30;4.43;;;8.10;76.70;;;8.58;62.14;98147.44;5038809;28;20487;-69
2023/03/29 07:58:33;;;;;;;4.80;4.30;;;8.30;76.40;;;8.36;61.58;98123.25;5043217;28;20471;-70
2023/03/29 08:01:00;;;;;;;8.30;5.33;;;8.50;75.60;;;8.47;61.85;98144.22;5042739;28;20467;-67
2023/03/29 08:03:27;;;;;;;8.83;4.67;;;8.50;75.30;;;8.37;61.67;98135.66;5035020;28;20487;-70
2023/03/29 08:05:54;;;;;;;5.47;4.27;;;8.60;75.10;;;8.69;61.15;98133.38;5038501;28;20496;-68
2023/03/29 08:08:23;;;;;;;6.30;4.60;;;8.60;75.20;;;8.83;60.46;98141.50;5037729;28;20467;-70
2023/03/29 08:10:53;;;;;;;8.57;4.60;;;8.80;74.80;;;8.76;61.01;98149.56;5044157;28;20452;-70
2023/03/29 08:13:20;;;;;;;6.00;4.50;;;8.70;74.70;;;8.69;60.87;98146.03;5038978;28;20475;-69
2023/03/29 08:15:49;;;;;;;5.90;4.73;;;8.70;74.70;;;8.91;60.39;98152.94;5036957;28;20640;-69
2023/03/29 08:18:16;;;;;;;6.00;4.80;;;8.80;74.50;;;9.02;59.65;98139.94;5038049;28;20459;-70
2023/03/29 08:20:43;;;;;;;6.63;4.40;;;8.90;74.00;;;8.83;60.03;98138.81;5042769;28;21320;-68
2023/03/29 08:23:10;;;;;;;5.10;3.97;;;8.90;73.80;;;8.72;61.04;98143.78;5040966;28;20542;-68
2023/03/29 08:25:37;;;;;;;6.60;4.33;;;8.70;74.40;;;8.33;62.09;98145.19;5051839;28;20878;-70
2023/03/29 08:28:06;;;;;;;5.70;5.00;;;8.40;74.50;;;8.52;61.35;98153.59;5036112;28;20457;-69
2023/03/29 08:30:33;;;;;;;5.00;4.40;;;8.50;74.90;;;8.94;60.81;98146.34;5060139;28;20446;-70
2023/03/29 08:33:00;;;;;;;7.03;4.80;;;8.70;74.80;;;8.89;61.00;98148.81;5041673;28;20509;-69
2023/03/29 08:35:28;;;;;;;7.17;4.80;;;8.80;74.50;;;8.91;60.42;98146.75;5038240;28;20543;-70
2023/03/29 08:37:55;;;;;;;5.43;4.90;;;8.80;74.10;;;9.19;59.75;98143.91;5040339;28;20502;-69
2023/03/29 08:40:26;;;;;;;5.93;4.70;;;9.00;74.00;;;9.53;58.83;98137.75;5048729;28;20818;-70
2023/03/29 08:43:12;;;;;;;10.30;5.03;;;9.40;73.30;;;9.89;57.41;98145.44;5043062;28;20565;-69
2023/03/29 08:45:54;;;;;;;7.97;4.73;;;9.60;72.80;;;9.62;56.63;98137.34;5047239;28;20514;-68
2023/03/29 08:48:28;;;;;;;5.47;4.60;;;9.70;71.50;;;10.15;57.06;98141.09;5041274;28;20827;-67
2023/03/29 08:51:01;;;;;;;6.50;5.00;;;9.90;71.50;;;10.59;55.33;98146.00;5040370;28;20490;-68
2023/03/29 08:53:31;;;;;;;9.20;4.60;;;10.30;69.80;;;11.03;54.05;98147.09;5047488;28;20476;-69
2023/03/29 08:56:03;;;;;;;7.30;4.30;;;10.60;68.90;;;10.85;54.14;98128.06;5041470;28;20483;-68
2023/03/29 08:58:35;;;;;;;5.50;5.00;;;10.70;68.10;;;10.73;54.09;98146.78;5041948;28;20518;-69
2023/03/29 09:01:07;;;;;;;5.33;4.60;;;10.80;67.60;;;10.90;54.48;98142.56;5048920;28;20498;-68
2023/03/29 09:03:38;;;;;;;5.30;4.63;;;10.80;67.40;;;10.80;54.19;98146.75;5038576;28;20477;-70
2023/03/29 09:06:08;;;;;;;6.10;4.90;;;10.70;67.10;;;10.91;54.44;98143.41;5036294;28;20484;-69
2023/03/29 09:08:39;;;;;;;5.30;4.80;;;10.70;67.20;;;10.77;54.09;98134.53;5043309;28;20487;-70
2023/03/29 09:11:31;;;;;;;5.80;4.13;;;10.60;67.00;;;11.33;53.89;98134.84;5042677;28;20489;-68
2023/03/29 09:14:21;;;;;;;8.67;7.00;;;10.80;67.60;;;11.54;52.84;98125.56;5040857;28;20453;-68
2023/03/29 09:16:56;;;;;;;5.70;4.60;;;11.20;66.80;;;11.31;52.66;98126.97;5048987;28;20487;-68
2023/03/29 09:19:33;;;;;;;4.63;4.23;;;11.10;66.10;;;11.20;53.55;98127.66;5047778;28;20456;-70
2023/03/29 09:22:10;;;;;;;4.60;4.20;;;11.20;65.90;;;11.15;53.08;98122.91;5043356;28;20520;-82
2023/03/29 09:24:47;;;;;;;5.47;4.60;;;11.20;65.60;;;11.06;53.74;98102.56;5050960;28;21144;-69
2023/03/29 09:27:21;;;;;;;5.77;3.77;;;11.10;65.30;;;11.60;52.09;98124.72;5032909;28;20481;-69
2023/03/29 09:30:04;;;;;;;5.47;4.10;;;11.40;65.00;;;12.00;50.22;98114.59;5044415;28;20980;-70
2023/03/29 09:32:41;;;;;;;4.30;3.60;;;11.80;63.10;;;12.14;47.49;98105.31;5034677;28;21009;-69
2023/03/29 09:35:17;;;;;;;4.57;3.27;;;12.10;59.60;;;12.49;45.78;98108.50;5041367;28;20455;-70
2023/03/29 09:37:46;;;;;;;5.47;2.77;;;12.40;57.50;;;12.53;46.66;98115.13;5042309;28;20480;-69
2023/03/29 09:40:19;;;;;;;3.90;3.50;;;12.40;57.60;;;12.47;46.53;98116.88;5040676;28;20467;-71
2023/03/29 09:42:49;;;;;;;6.20;3.33;;;12.50;56.80;;;12.25;46.95;98105.63;5061042;28;20476;-70
2023/03/29 09:45:18;;;;;;;2.50;2.30;;;12.40;56.40;;;12.57;46.04;98114.44;5041031;28;20556;-71
2023/03/29 09:47:50;;;;;;;5.20;3.43;;;12.40;56.30;;;12.82;45.63;98110.00;5045350;28;20862;-70
2023/03/29 09:50:23;;;;;;;4.90;3.50;;;12.70;56.10;;;12.87;45.97;98110.94;5041942;28;20446;-71
2023/03/29 09:52:51;;;;;;;3.23;2.70;;;12.70;55.90;;;12.99;45.78;98111.03;5043473;28;20462;-70
2023/03/29 09:55:28;;;;;;;4.90;3.63;;;12.80;56.00;;;13.50;44.84;98110.75;5055989;28;20454;-71
2023/03/29 09:57:59;;;;;;;3.53;3.20;;;13.10;55.80;;;14.05;43.13;98100.69;5060304;28;21067;-71
2023/03/29 10:00:27;;;;;;;3.43;2.47;;;13.60;54.90;;;13.85;43.25;98101.84;5054402;28;20480;-70
2023/03/29 10:02:58;;;;;;;23.43;6.00;;;13.70;54.30;;;13.93;43.63;98097.13;5052830;28;20978;-70
2023/03/29 10:05:29;;;;;;;4.83;2.73;;;13.80;54.50;;;13.42;44.58;98092.03;5047179;28;20522;-71
2023/03/29 10:08:01;;;;;;;2.67;2.30;;;13.60;54.20;;;14.17;42.62;98101.50;5059570;28;20479;-74
2023/03/29 10:10:31;;;;;;;3.67;2.73;;;13.80;53.60;;;13.83;43.15;98100.44;5064617;28;20446;-71
2023/03/29 10:13:04;;;;;;;2.57;2.23;;;13.90;53.00;;;14.12;42.48;98100.56;5059460;28;20734;-70
2023/03/29 10:15:33;;;;;;;2.70;1.97;;;13.90;52.90;;;13.77;43.11;98093.22;5046231;28;20450;-71
2023/03/29 10:18:03;;;;;;;3.50;1.90;;;13.80;52.50;;;13.65;43.19;98101.34;5041952;28;20453;-71
2023/03/29 10:20:31;;;;;;;4.30;2.47;;;13.60;52.40;;;14.07;42.90;98100.44;5045212;28;20540;-71
2023/03/29 10:22:59;;;;;;;2.30;2.10;;;13.70;52.90;;;14.35;42.63;98097.00;5044165;28;20473;-69
2023/03/29 10:25:32;;;;;;;3.40;2.30;;;14.00;52.70;;;14.62;41.51;98110.06;5059062;28;20971;-70
2023/03/29 10:28:06;;;;;;;6.00;2.23;;;14.30;52.30;;;14.40;42.21;98097.13;5052452;28;20511;-73
2023/03/29 10:30:37;;;;;;;2.53;1.93;;;14.20;52.00;;;13.74;43.41;98102.66;5044725;28;20450;-71
2023/03/29 10:33:15;;;;;;;3.03;2.10;;;13.90;51.80;;;13.50;43.51;98091.75;5042010;28;20525;-70
2023/03/29 10:35:42;;;;;;;2.57;1.93;;;13.50;51.70;;;13.76;42.78;98094.28;5041150;28;20829;-66
2023/03/29 10:38:14;;;;;;;3.03;1.87;;;13.60;51.80;;;13.80;42.98;98096.28;5040231;28;20465;-68
2023/03/29 10:40:46;;;;;;;2.57;2.37;;;13.60;51.90;;;14.00;43.00;98093.25;5045335;28;20856;-67